createdAt,value
2019-03-31T00:00:14.108Z,0
2019-03-31T00:01:17.901Z,0
2019-03-31T00:02:14.065Z,0
2019-03-31T00:03:14.044Z,0
2019-03-31T00:04:14.020Z,0
2019-03-31T00:05:14.002Z,0
2019-03-31T00:06:13.989Z,0
2019-03-31T00:07:13.972Z,0
2019-03-31T00:08:13.962Z,0
2019-03-31T00:09:13.681Z,0
2019-03-31T00:10:13.898Z,0
2019-03-31T00:11:13.926Z,0
2019-03-31T00:12:13.842Z,0
2019-03-31T00:13:13.821Z,0
2019-03-31T00:14:13.800Z,0
2019-03-31T00:15:13.781Z,0
2019-03-31T00:16:13.750Z,0
2019-03-31T00:17:13.809Z,0
2019-03-31T00:18:13.722Z,0
2019-03-31T00:19:13.690Z,0
2019-03-31T00:20:13.687Z,0
2019-03-31T00:21:13.641Z,0
2019-03-31T00:22:13.622Z,0
2019-03-31T00:23:13.592Z,0
2019-03-31T00:24:13.577Z,0
2019-03-31T00:25:13.581Z,0
2019-03-31T00:26:13.286Z,0
2019-03-31T00:27:13.506Z,0
2019-03-31T00:28:13.534Z,0
2019-03-31T00:29:13.458Z,0
2019-03-31T00:30:13.533Z,0
2019-03-31T00:31:26.651Z,0
2019-03-31T00:32:13.435Z,0
2019-03-31T00:33:13.369Z,0
2019-03-31T00:34:13.353Z,0
2019-03-31T00:35:13.337Z,0
2019-03-31T00:36:13.304Z,0
2019-03-31T00:37:14.923Z,0
2019-03-31T00:38:13.260Z,0
2019-03-31T00:39:13.234Z,0
2019-03-31T00:40:13.216Z,0
2019-03-31T00:41:13.188Z,0
2019-03-31T00:42:13.166Z,0
2019-03-31T00:43:13.133Z,0
2019-03-31T00:44:12.882Z,0
2019-03-31T00:45:13.115Z,0
2019-03-31T00:46:13.072Z,0
2019-03-31T00:47:13.055Z,0
2019-03-31T00:48:13.123Z,0
2019-03-31T00:49:13.039Z,0
2019-03-31T00:50:12.757Z,0
2019-03-31T00:51:12.963Z,0
2019-03-31T00:52:12.932Z,0
2019-03-31T00:53:12.920Z,0
2019-03-31T00:54:12.982Z,0
2019-03-31T00:55:12.883Z,0
2019-03-31T00:56:12.845Z,0
2019-03-31T00:57:12.826Z,0
2019-03-31T00:58:12.805Z,0
2019-03-31T00:59:12.776Z,0
2019-03-31T01:00:12.751Z,0
2019-03-31T01:01:12.743Z,0
2019-03-31T01:02:12.718Z,0
2019-03-31T01:03:12.683Z,0
2019-03-31T01:04:12.663Z,0
2019-03-31T01:05:12.637Z,0
2019-03-31T01:06:12.613Z,0
2019-03-31T01:07:12.599Z,0
2019-03-31T01:08:12.575Z,0
2019-03-31T01:09:12.548Z,0
2019-03-31T01:10:12.539Z,0
2019-03-31T01:11:12.504Z,0
2019-03-31T01:12:12.485Z,0
2019-03-31T01:13:12.454Z,0
2019-03-31T01:14:12.430Z,0
2019-03-31T01:15:12.406Z,0
2019-03-31T01:16:15.020Z,0
2019-03-31T01:17:12.121Z,0
2019-03-31T01:18:12.341Z,0
2019-03-31T01:19:12.321Z,0
2019-03-31T01:20:12.294Z,0
2019-03-31T01:21:12.264Z,0
2019-03-31T01:22:12.244Z,0
2019-03-31T01:23:12.286Z,0
2019-03-31T01:24:12.193Z,0
2019-03-31T01:25:12.171Z,0
2019-03-31T01:26:12.149Z,0
2019-03-31T01:27:12.127Z,0
2019-03-31T01:28:12.102Z,0
2019-03-31T01:29:12.077Z,0
2019-03-31T01:30:12.051Z,0
2019-03-31T01:31:12.032Z,0
2019-03-31T01:32:12.006Z,0
2019-03-31T01:33:11.998Z,0
2019-03-31T01:34:11.968Z,0
2019-03-31T01:35:11.941Z,0
2019-03-31T01:36:11.927Z,0
2019-03-31T01:37:11.894Z,0
2019-03-31T01:38:11.875Z,0
2019-03-31T01:39:11.853Z,0
2019-03-31T01:40:11.837Z,0
2019-03-31T01:41:11.817Z,0
2019-03-31T01:42:11.775Z,0
2019-03-31T01:43:11.517Z,0
2019-03-31T01:44:11.488Z,0
2019-03-31T01:45:11.703Z,0
2019-03-31T01:46:13.370Z,0
2019-03-31T01:47:11.667Z,0
2019-03-31T01:48:11.628Z,0
2019-03-31T01:49:11.685Z,0
2019-03-31T01:50:11.584Z,0
2019-03-31T01:51:11.556Z,0
2019-03-31T01:52:11.553Z,0
2019-03-31T01:53:11.514Z,0
2019-03-31T01:54:11.492Z,0
2019-03-31T01:55:11.222Z,0
2019-03-31T01:56:11.441Z,0
2019-03-31T01:57:11.424Z,0
2019-03-31T01:58:11.397Z,0
2019-03-31T01:59:11.438Z,0
2019-03-31T02:00:11.357Z,0
2019-03-31T02:01:11.334Z,0
2019-03-31T02:02:14.046Z,0
2019-03-31T02:03:11.267Z,0
2019-03-31T02:04:11.244Z,0
2019-03-31T02:05:11.240Z,0
2019-03-31T02:06:11.210Z,0
2019-03-31T02:07:11.200Z,0
2019-03-31T02:08:11.163Z,0
2019-03-31T02:09:11.131Z,0
2019-03-31T02:10:11.130Z,0
2019-03-31T02:11:11.735Z,0
2019-03-31T02:12:11.064Z,0
2019-03-31T02:13:11.038Z,0
2019-03-31T02:14:11.029Z,0
2019-03-31T02:15:10.991Z,0
2019-03-31T02:16:10.970Z,0
2019-03-31T02:17:10.943Z,0
2019-03-31T02:18:10.927Z,0
2019-03-31T02:19:10.672Z,0
2019-03-31T02:20:10.895Z,0
2019-03-31T02:21:10.624Z,0
2019-03-31T02:22:10.830Z,0
2019-03-31T02:23:10.804Z,0
2019-03-31T02:24:10.778Z,0
2019-03-31T02:25:10.825Z,0
2019-03-31T02:26:10.729Z,0
2019-03-31T02:27:10.537Z,0
2019-03-31T02:28:10.704Z,0
2019-03-31T02:29:10.660Z,0
2019-03-31T02:30:10.833Z,0
2019-03-31T02:31:10.626Z,0
2019-03-31T02:32:29.880Z,0
2019-03-31T02:33:10.594Z,0
2019-03-31T02:34:10.568Z,0
2019-03-31T02:35:10.524Z,0
2019-03-31T02:36:10.501Z,0
2019-03-31T02:37:10.481Z,0
2019-03-31T02:38:10.446Z,0
2019-03-31T02:39:10.450Z,0
2019-03-31T02:40:10.411Z,0
2019-03-31T02:41:10.393Z,0
2019-03-31T02:42:10.387Z,0
2019-03-31T02:43:11.540Z,0
2019-03-31T02:44:10.326Z,0
2019-03-31T02:45:10.304Z,0
2019-03-31T02:46:10.255Z,0
2019-03-31T02:47:10.337Z,0
2019-03-31T02:48:10.318Z,0
2019-03-31T02:49:10.188Z,0
2019-03-31T02:50:10.229Z,0
2019-03-31T02:51:09.923Z,0
2019-03-31T02:52:09.960Z,0
2019-03-31T02:53:11.077Z,0
2019-03-31T02:54:09.924Z,0
2019-03-31T02:55:10.089Z,0
2019-03-31T02:56:09.791Z,0
2019-03-31T02:57:10.009Z,0
2019-03-31T02:58:09.988Z,0
2019-03-31T02:59:10.010Z,0
2019-03-31T03:00:10.129Z,0
2019-03-31T03:01:09.916Z,0
2019-03-31T03:02:09.874Z,0
2019-03-31T03:03:09.856Z,0
2019-03-31T03:04:12.687Z,0
2019-03-31T03:05:28.039Z,0
2019-03-31T03:06:09.549Z,0
2019-03-31T03:07:09.772Z,0
2019-03-31T03:08:09.517Z,0
2019-03-31T03:09:09.713Z,0
2019-03-31T03:10:10.037Z,0
2019-03-31T03:11:09.660Z,0
2019-03-31T03:12:09.707Z,0
2019-03-31T03:13:09.633Z,0
2019-03-31T03:14:09.592Z,0
2019-03-31T03:15:09.983Z,0
2019-03-31T03:16:09.568Z,0
2019-03-31T03:17:09.534Z,0
2019-03-31T03:18:09.501Z,0
2019-03-31T03:19:09.591Z,0
2019-03-31T03:20:09.905Z,0
2019-03-31T03:21:09.451Z,0
2019-03-31T03:22:09.396Z,0
2019-03-31T03:23:09.191Z,0
2019-03-31T03:24:09.375Z,0
2019-03-31T03:25:09.410Z,0
2019-03-31T03:26:09.318Z,0
2019-03-31T03:27:09.290Z,0
2019-03-31T03:28:09.392Z,0
2019-03-31T03:29:09.273Z,0
2019-03-31T03:30:09.319Z,0
2019-03-31T03:31:19.849Z,0
2019-03-31T03:32:09.193Z,0
2019-03-31T03:33:25.897Z,0
2019-03-31T03:34:09.583Z,0
2019-03-31T03:35:09.025Z,0
2019-03-31T03:36:09.093Z,0
2019-03-31T03:37:08.845Z,0
2019-03-31T03:38:09.015Z,0
2019-03-31T03:39:09.033Z,0
2019-03-31T03:40:08.728Z,0
2019-03-31T03:41:08.951Z,0
2019-03-31T03:42:08.952Z,0
2019-03-31T03:43:08.963Z,0
2019-03-31T03:44:11.864Z,0
2019-03-31T03:45:08.928Z,0
2019-03-31T03:46:08.834Z,0
2019-03-31T03:47:08.815Z,0
2019-03-31T03:48:08.891Z,0
2019-03-31T03:49:10.332Z,0
2019-03-31T03:50:08.818Z,0
2019-03-31T03:51:08.747Z,0
2019-03-31T03:52:08.453Z,0
2019-03-31T03:53:08.741Z,0
2019-03-31T03:54:08.637Z,0
2019-03-31T03:55:08.374Z,0
2019-03-31T03:56:08.597Z,0
2019-03-31T03:57:08.566Z,0
2019-03-31T03:58:08.559Z,0
2019-03-31T03:59:08.514Z,0
2019-03-31T04:00:08.502Z,0
2019-03-31T04:01:08.473Z,0
2019-03-31T04:02:08.236Z,0
2019-03-31T04:03:08.444Z,0
2019-03-31T04:04:08.425Z,0
2019-03-31T04:05:08.141Z,0
2019-03-31T04:06:08.355Z,0
2019-03-31T04:07:08.320Z,0
2019-03-31T04:08:08.299Z,0
2019-03-31T04:09:08.275Z,0
2019-03-31T04:10:08.269Z,0
2019-03-31T04:11:08.229Z,0
2019-03-31T04:12:08.212Z,0
2019-03-31T04:13:08.184Z,0
2019-03-31T04:14:08.155Z,0
2019-03-31T04:15:08.167Z,0
2019-03-31T04:16:08.114Z,0
2019-03-31T04:17:08.098Z,0
2019-03-31T04:18:08.073Z,0
2019-03-31T04:19:08.129Z,0
2019-03-31T04:20:08.028Z,0
2019-03-31T04:21:08.021Z,0
2019-03-31T04:22:08.019Z,0
2019-03-31T04:23:07.961Z,0
2019-03-31T04:24:07.937Z,0
2019-03-31T04:25:07.912Z,0
2019-03-31T04:26:07.900Z,0
2019-03-31T04:27:07.848Z,0
2019-03-31T04:28:07.843Z,0
2019-03-31T04:29:07.797Z,0
2019-03-31T04:30:07.969Z,0
2019-03-31T04:31:07.769Z,0
2019-03-31T04:32:07.740Z,0
2019-03-31T04:33:07.873Z,0
2019-03-31T04:34:07.687Z,0
2019-03-31T04:35:07.778Z,0
2019-03-31T04:36:07.398Z,0
2019-03-31T04:37:07.608Z,0
2019-03-31T04:38:07.624Z,0
2019-03-31T04:39:09.909Z,0
2019-03-31T04:40:07.664Z,0
2019-03-31T04:41:07.505Z,0
2019-03-31T04:42:07.474Z,0
2019-03-31T04:43:07.465Z,0
2019-03-31T04:44:07.420Z,0
2019-03-31T04:45:07.230Z,0
2019-03-31T04:46:07.377Z,0
2019-03-31T04:47:07.489Z,0
2019-03-31T04:48:07.334Z,0
2019-03-31T04:49:07.338Z,0
2019-03-31T04:50:07.390Z,0
2019-03-31T04:51:07.254Z,0
2019-03-31T04:52:07.289Z,0
2019-03-31T04:53:07.201Z,0
2019-03-31T04:54:06.942Z,0
2019-03-31T04:55:07.160Z,0
2019-03-31T04:56:07.146Z,0
2019-03-31T04:57:09.336Z,0
2019-03-31T04:58:07.100Z,0
2019-03-31T04:59:07.059Z,0
2019-03-31T05:00:07.035Z,0
2019-03-31T05:01:07.027Z,5
2019-03-31T05:02:07.008Z,5
2019-03-31T05:03:06.983Z,5
2019-03-31T05:04:14.410Z,5
2019-03-31T05:05:06.939Z,5
2019-03-31T05:06:06.924Z,5
2019-03-31T05:07:06.866Z,5
2019-03-31T05:08:06.845Z,10
2019-03-31T05:09:06.815Z,10
2019-03-31T05:10:06.871Z,10
2019-03-31T05:11:06.774Z,10
2019-03-31T05:12:06.745Z,10
2019-03-31T05:13:06.726Z,15
2019-03-31T05:14:06.693Z,15
2019-03-31T05:15:06.717Z,15
2019-03-31T05:16:06.647Z,15
2019-03-31T05:17:06.654Z,15
2019-03-31T05:18:06.611Z,15
2019-03-31T05:19:06.579Z,15
2019-03-31T05:20:06.549Z,15
2019-03-31T05:21:06.515Z,15
2019-03-31T05:22:06.495Z,15
2019-03-31T05:23:06.494Z,15
2019-03-31T05:24:06.510Z,15
2019-03-31T05:25:06.422Z,15
2019-03-31T05:26:06.405Z,15
2019-03-31T05:27:06.372Z,15
2019-03-31T05:28:06.363Z,20
2019-03-31T05:29:06.094Z,20
2019-03-31T05:30:06.319Z,20
2019-03-31T05:31:06.310Z,20
2019-03-31T05:32:06.258Z,20
2019-03-31T05:33:06.223Z,25
2019-03-31T05:34:20.828Z,25
2019-03-31T05:35:06.192Z,30
2019-03-31T05:36:06.223Z,30
2019-03-31T05:37:06.137Z,35
2019-03-31T05:38:06.104Z,35
2019-03-31T05:39:06.090Z,40
2019-03-31T05:40:06.068Z,40
2019-03-31T05:41:06.050Z,45
2019-03-31T05:42:06.008Z,45
2019-03-31T05:43:06.051Z,50
2019-03-31T05:44:15.262Z,50
2019-03-31T05:45:05.972Z,50
2019-03-31T05:46:05.913Z,55
2019-03-31T05:47:05.885Z,55
2019-03-31T05:48:05.903Z,55
2019-03-31T05:49:05.837Z,60
2019-03-31T05:50:05.809Z,60
2019-03-31T05:51:05.787Z,65
2019-03-31T05:52:05.773Z,65
2019-03-31T05:53:05.747Z,70
2019-03-31T05:54:05.715Z,70
2019-03-31T05:55:05.697Z,75
2019-03-31T05:56:05.668Z,80
2019-03-31T05:57:05.641Z,80
2019-03-31T05:58:05.617Z,85
2019-03-31T05:59:05.368Z,90
2019-03-31T06:00:05.574Z,90
2019-03-31T06:01:05.548Z,90
2019-03-31T06:02:05.614Z,90
2019-03-31T06:03:05.490Z,90
2019-03-31T06:04:05.475Z,95
2019-03-31T06:05:05.445Z,95
2019-03-31T06:06:05.520Z,100
2019-03-31T06:07:05.412Z,100
2019-03-31T06:08:05.390Z,105
2019-03-31T06:09:05.355Z,110
2019-03-31T06:10:05.330Z,115
2019-03-31T06:11:05.305Z,115
2019-03-31T06:12:05.296Z,120
2019-03-31T06:13:05.254Z,115
2019-03-31T06:14:05.280Z,115
2019-03-31T06:15:05.117Z,110
2019-03-31T06:16:05.184Z,105
2019-03-31T06:17:05.222Z,100
2019-03-31T06:18:05.130Z,105
2019-03-31T06:19:05.102Z,95
2019-03-31T06:20:05.183Z,90
2019-03-31T06:21:05.080Z,90
2019-03-31T06:22:05.042Z,85
2019-03-31T06:23:05.027Z,85
2019-03-31T06:24:04.993Z,85
2019-03-31T06:25:05.165Z,90
2019-03-31T06:26:04.976Z,90
2019-03-31T06:27:04.937Z,95
2019-03-31T06:28:04.891Z,100
2019-03-31T06:29:04.873Z,105
2019-03-31T06:30:05.032Z,110
2019-03-31T06:31:04.808Z,115
2019-03-31T06:32:04.794Z,125
2019-03-31T06:33:05.070Z,130
2019-03-31T06:34:04.743Z,135
2019-03-31T06:35:04.815Z,140
2019-03-31T06:36:04.691Z,145
2019-03-31T06:37:04.705Z,150
2019-03-31T06:38:04.642Z,155
2019-03-31T06:39:04.621Z,160
2019-03-31T06:40:04.605Z,160
2019-03-31T06:41:04.576Z,160
2019-03-31T06:42:04.631Z,160
2019-03-31T06:43:04.523Z,160
2019-03-31T06:44:04.503Z,160
2019-03-31T06:45:04.483Z,165
2019-03-31T06:46:04.452Z,165
2019-03-31T06:47:04.427Z,165
2019-03-31T06:48:04.273Z,165
2019-03-31T06:49:04.371Z,165
2019-03-31T06:50:04.346Z,165
2019-03-31T06:51:04.333Z,165
2019-03-31T06:52:04.315Z,160
2019-03-31T06:53:04.278Z,165
2019-03-31T06:54:04.037Z,165
2019-03-31T06:55:04.227Z,165
2019-03-31T06:56:04.227Z,170
2019-03-31T06:57:04.206Z,175
2019-03-31T06:58:03.980Z,175
2019-03-31T06:59:04.125Z,175
2019-03-31T07:00:04.113Z,175
2019-03-31T07:01:04.089Z,180
2019-03-31T07:02:07.701Z,180
2019-03-31T07:03:04.027Z,185
2019-03-31T07:04:04.029Z,190
2019-03-31T07:05:10.260Z,195
2019-03-31T07:06:03.959Z,195
2019-03-31T07:07:03.933Z,210
2019-03-31T07:08:04.287Z,205
2019-03-31T07:09:03.911Z,205
2019-03-31T07:10:03.865Z,205
2019-03-31T07:11:03.844Z,210
2019-03-31T07:12:03.841Z,205
2019-03-31T07:13:06.918Z,210
2019-03-31T07:14:03.778Z,215
2019-03-31T07:15:03.755Z,215
2019-03-31T07:16:03.474Z,210
2019-03-31T07:17:03.696Z,210
2019-03-31T07:18:03.660Z,205
2019-03-31T07:19:03.640Z,205
2019-03-31T07:20:03.604Z,205
2019-03-31T07:21:03.588Z,205
2019-03-31T07:22:03.572Z,205
2019-03-31T07:23:03.567Z,205
2019-03-31T07:24:03.514Z,205
2019-03-31T07:25:03.611Z,205
2019-03-31T07:26:03.472Z,200
2019-03-31T07:27:03.450Z,195
2019-03-31T07:28:03.418Z,195
2019-03-31T07:29:03.389Z,200
2019-03-31T07:30:03.369Z,205
2019-03-31T07:31:06.467Z,200
2019-03-31T07:32:03.317Z,195
2019-03-31T07:33:03.289Z,200
2019-03-31T07:34:03.267Z,210
2019-03-31T07:35:17.531Z,215
2019-03-31T07:36:03.225Z,230
2019-03-31T07:37:03.197Z,225
2019-03-31T07:38:03.165Z,225
2019-03-31T07:39:03.567Z,225
2019-03-31T07:40:04.192Z,230
2019-03-31T07:41:17.069Z,235
2019-03-31T07:42:04.920Z,230
2019-03-31T07:43:03.239Z,230
2019-03-31T07:44:03.020Z,230
2019-03-31T07:45:03.802Z,235
2019-03-31T07:46:05.599Z,240
2019-03-31T07:47:03.215Z,235
2019-03-31T07:48:02.929Z,245
2019-03-31T07:49:02.914Z,260
2019-03-31T07:50:02.874Z,275
2019-03-31T07:51:03.714Z,300
2019-03-31T07:52:02.689Z,315
2019-03-31T07:53:02.820Z,320
2019-03-31T07:54:02.796Z,335
2019-03-31T07:55:02.752Z,340
2019-03-31T07:56:02.720Z,330
2019-03-31T07:57:02.700Z,315
2019-03-31T07:58:04.068Z,295
2019-03-31T07:59:02.675Z,295
2019-03-31T08:00:06.000Z,310
2019-03-31T08:01:02.382Z,355
2019-03-31T08:02:02.577Z,380
2019-03-31T08:03:05.060Z,395
2019-03-31T08:04:02.533Z,395
2019-03-31T08:05:02.753Z,395
2019-03-31T08:06:02.481Z,395
2019-03-31T08:07:02.460Z,380
2019-03-31T08:08:02.444Z,385
2019-03-31T08:09:02.950Z,390
2019-03-31T08:10:02.384Z,405
2019-03-31T08:11:02.455Z,410
2019-03-31T08:12:03.963Z,415
2019-03-31T08:13:03.840Z,405
2019-03-31T08:14:04.681Z,395
2019-03-31T08:15:02.282Z,380
2019-03-31T08:16:02.026Z,370
2019-03-31T08:17:02.217Z,360
2019-03-31T08:18:02.199Z,350
2019-03-31T08:19:02.160Z,330
2019-03-31T08:20:02.141Z,315
2019-03-31T08:21:02.123Z,305
2019-03-31T08:22:02.103Z,295
2019-03-31T08:23:04.224Z,295
2019-03-31T08:24:02.056Z,300
2019-03-31T08:25:02.092Z,295
2019-03-31T08:26:01.998Z,290
2019-03-31T08:27:05.406Z,305
2019-03-31T08:28:01.948Z,315
2019-03-31T08:29:05.509Z,325
2019-03-31T08:30:09.910Z,335
2019-03-31T08:31:01.891Z,340
2019-03-31T08:32:01.869Z,345
2019-03-31T08:33:01.851Z,350
2019-03-31T08:34:01.813Z,355
2019-03-31T08:35:01.788Z,355
2019-03-31T08:36:01.768Z,360
2019-03-31T08:37:01.739Z,365
2019-03-31T08:38:01.721Z,370
2019-03-31T08:39:01.691Z,370
2019-03-31T08:40:01.664Z,375
2019-03-31T08:41:01.643Z,380
2019-03-31T08:42:01.611Z,385
2019-03-31T08:43:01.604Z,385
2019-03-31T08:44:01.573Z,385
2019-03-31T08:45:01.562Z,385
2019-03-31T08:46:01.524Z,385
2019-03-31T08:47:01.499Z,385
2019-03-31T08:48:01.478Z,395
2019-03-31T08:49:01.453Z,405
2019-03-31T08:50:04.653Z,410
2019-03-31T08:51:01.410Z,425
2019-03-31T08:52:01.409Z,430
2019-03-31T08:53:01.358Z,440
2019-03-31T08:54:01.336Z,445
2019-03-31T08:55:01.378Z,460
2019-03-31T08:56:01.294Z,470
2019-03-31T08:57:01.315Z,485
2019-03-31T08:58:01.245Z,495
2019-03-31T08:59:01.235Z,515
2019-03-31T09:00:01.201Z,520
2019-03-31T09:01:01.181Z,530
2019-03-31T09:02:03.235Z,550
2019-03-31T09:03:01.124Z,580
2019-03-31T09:04:01.107Z,595
2019-03-31T09:05:01.082Z,605
2019-03-31T09:06:11.488Z,620
2019-03-31T09:07:01.047Z,620
2019-03-31T09:08:01.054Z,625
2019-03-31T09:09:00.981Z,630
2019-03-31T09:10:00.967Z,630
2019-03-31T09:11:00.715Z,635
2019-03-31T09:12:00.922Z,645
2019-03-31T09:13:00.897Z,660
2019-03-31T09:14:00.880Z,670
2019-03-31T09:15:00.877Z,685
2019-03-31T09:16:00.836Z,675
2019-03-31T09:17:00.810Z,665
2019-03-31T09:18:03.586Z,680
2019-03-31T09:19:00.779Z,670
2019-03-31T09:20:00.757Z,650
2019-03-31T09:21:00.739Z,650
2019-03-31T09:22:00.706Z,650
2019-03-31T09:23:00.700Z,655
2019-03-31T09:24:00.692Z,620
2019-03-31T09:25:00.682Z,600
2019-03-31T09:26:00.642Z,610
2019-03-31T09:27:00.631Z,625
2019-03-31T09:28:00.600Z,590
2019-03-31T09:29:00.594Z,545
2019-03-31T09:30:00.669Z,530
2019-03-31T09:31:00.538Z,525
2019-03-31T09:32:00.594Z,535
2019-03-31T09:33:00.544Z,545
2019-03-31T09:34:00.501Z,605
2019-03-31T09:35:00.459Z,625
2019-03-31T09:36:00.438Z,585
2019-03-31T09:37:00.432Z,580
2019-03-31T09:38:00.397Z,640
2019-03-31T09:39:01.151Z,695
2019-03-31T09:40:00.405Z,665
2019-03-31T09:41:00.424Z,650
2019-03-31T09:42:00.085Z,615
2019-03-31T09:43:00.299Z,620
2019-03-31T09:44:00.324Z,635
2019-03-31T09:45:00.357Z,620
2019-03-31T09:46:00.315Z,620
2019-03-31T09:47:00.217Z,650
2019-03-31T09:48:00.191Z,675
2019-03-31T09:49:00.177Z,725
2019-03-31T09:50:00.230Z,750
2019-03-31T09:51:03.598Z,670
2019-03-31T09:52:00.111Z,550
2019-03-31T09:53:00.140Z,495
2019-03-31T09:54:00.068Z,455
2019-03-31T09:55:00.047Z,455
2019-03-31T09:56:00.028Z,500
2019-03-31T09:57:00.087Z,545
2019-03-31T09:57:59.989Z,550
2019-03-31T09:58:59.964Z,550
2019-03-31T09:59:59.943Z,525
2019-03-31T10:00:59.935Z,470
2019-03-31T10:01:59.905Z,485
2019-03-31T10:03:03.374Z,545
2019-03-31T10:03:59.869Z,575
2019-03-31T10:04:59.845Z,600
2019-03-31T10:06:14.795Z,600
2019-03-31T10:06:59.801Z,575
2019-03-31T10:07:59.543Z,575
2019-03-31T10:08:59.776Z,610
2019-03-31T10:09:59.741Z,595
2019-03-31T10:11:02.687Z,585
2019-03-31T10:11:59.698Z,620
2019-03-31T10:12:59.672Z,650
2019-03-31T10:13:59.753Z,670
2019-03-31T10:15:01.443Z,675
2019-03-31T10:15:59.645Z,720
2019-03-31T10:17:00.871Z,785
2019-03-31T10:17:59.573Z,840
2019-03-31T10:18:59.576Z,890
2019-03-31T10:19:59.536Z,935
2019-03-31T10:20:59.514Z,935
2019-03-31T10:21:59.502Z,950
2019-03-31T10:22:59.468Z,980
2019-03-31T10:23:59.447Z,865
2019-03-31T10:25:00.369Z,815
2019-03-31T10:26:00.613Z,830
2019-03-31T10:26:59.476Z,855
2019-03-31T10:27:59.364Z,780
2019-03-31T10:28:59.346Z,760
2019-03-31T10:29:59.325Z,725
2019-03-31T10:30:59.311Z,705
2019-03-31T10:31:59.297Z,705
2019-03-31T10:32:59.279Z,715
2019-03-31T10:33:59.265Z,715
2019-03-31T10:34:59.242Z,720
2019-03-31T10:35:59.213Z,735
2019-03-31T10:36:59.192Z,705
2019-03-31T10:37:59.172Z,640
2019-03-31T10:38:59.171Z,620
2019-03-31T10:39:59.222Z,560
2019-03-31T10:40:59.139Z,515
2019-03-31T10:41:59.096Z,490
2019-03-31T10:42:59.075Z,470
2019-03-31T10:43:59.056Z,475
2019-03-31T10:44:58.804Z,480
2019-03-31T10:45:59.018Z,475
2019-03-31T10:47:00.908Z,440
2019-03-31T10:47:58.975Z,430
2019-03-31T10:48:58.966Z,435
2019-03-31T10:49:58.926Z,460
2019-03-31T10:50:58.922Z,465
2019-03-31T10:51:59.029Z,465
2019-03-31T10:52:59.554Z,450
2019-03-31T10:53:58.876Z,465
2019-03-31T10:54:58.842Z,500
2019-03-31T10:55:58.812Z,535
2019-03-31T10:56:58.556Z,540
2019-03-31T10:57:58.797Z,555
2019-03-31T10:58:58.293Z,575
2019-03-31T10:59:58.764Z,605
2019-03-31T11:00:58.711Z,615
2019-03-31T11:01:58.710Z,640
2019-03-31T11:02:58.669Z,695
2019-03-31T11:03:58.662Z,735
2019-03-31T11:04:58.625Z,745
2019-03-31T11:05:58.599Z,725
2019-03-31T11:07:10.702Z,715
2019-03-31T11:07:58.563Z,740
2019-03-31T11:08:58.538Z,785
2019-03-31T11:09:58.534Z,840
2019-03-31T11:10:59.802Z,915
2019-03-31T11:11:58.484Z,1020
2019-03-31T11:13:00.601Z,1105
2019-03-31T11:13:58.455Z,1160
2019-03-31T11:14:58.418Z,1170
2019-03-31T11:16:02.045Z,1155
2019-03-31T11:16:58.376Z,1120
2019-03-31T11:17:58.356Z,1065
2019-03-31T11:18:58.340Z,1015
2019-03-31T11:20:00.677Z,985
2019-03-31T11:20:58.300Z,945
2019-03-31T11:21:58.281Z,935
2019-03-31T11:22:58.269Z,935
2019-03-31T11:23:58.252Z,955
2019-03-31T11:24:58.216Z,970
2019-03-31T11:25:58.212Z,950
2019-03-31T11:26:58.200Z,915
2019-03-31T11:27:58.162Z,825
2019-03-31T11:28:58.150Z,760
2019-03-31T11:29:58.127Z,745
2019-03-31T11:30:58.112Z,750
2019-03-31T11:31:58.080Z,750
2019-03-31T11:32:58.096Z,755
2019-03-31T11:33:58.051Z,755
2019-03-31T11:34:58.066Z,745
2019-03-31T11:35:58.018Z,745
2019-03-31T11:37:12.433Z,800
2019-03-31T11:37:57.976Z,900
2019-03-31T11:38:57.980Z,990
2019-03-31T11:39:57.935Z,1070
2019-03-31T11:40:57.913Z,1125
2019-03-31T11:41:57.897Z,1155
2019-03-31T11:42:57.874Z,1205
2019-03-31T11:43:57.859Z,1170
2019-03-31T11:44:57.835Z,1130
2019-03-31T11:45:57.821Z,1100
2019-03-31T11:46:57.799Z,1115
2019-03-31T11:47:57.776Z,1130
2019-03-31T11:48:57.762Z,1115
2019-03-31T11:49:57.747Z,1055
2019-03-31T11:51:00.314Z,970
2019-03-31T11:51:57.765Z,940
2019-03-31T11:52:57.690Z,940
2019-03-31T11:53:57.675Z,940
2019-03-31T11:54:58.121Z,955
2019-03-31T11:55:58.409Z,995
2019-03-31T11:56:57.613Z,1020
2019-03-31T11:57:57.602Z,1085
2019-03-31T11:58:57.590Z,1115
2019-03-31T11:59:59.277Z,1110
2019-03-31T12:00:57.544Z,1110
2019-03-31T12:01:57.532Z,1095
2019-03-31T12:02:57.509Z,1080
2019-03-31T12:03:58.868Z,1080
2019-03-31T12:04:57.468Z,1010
2019-03-31T12:05:57.456Z,940
2019-03-31T12:06:57.436Z,925
2019-03-31T12:07:57.432Z,965
2019-03-31T12:08:57.401Z,1005
2019-03-31T12:09:57.788Z,1040
2019-03-31T12:10:58.242Z,1065
2019-03-31T12:11:57.349Z,1095
2019-03-31T12:12:58.055Z,1110
2019-03-31T12:13:57.387Z,1095
2019-03-31T12:15:09.785Z,1090
2019-03-31T12:15:57.349Z,1075
2019-03-31T12:16:57.257Z,1065
2019-03-31T12:17:57.241Z,965
2019-03-31T12:18:56.983Z,875
2019-03-31T12:19:58.350Z,835
2019-03-31T12:20:57.285Z,845
2019-03-31T12:21:57.409Z,855
2019-03-31T12:22:57.149Z,845
2019-03-31T12:23:57.131Z,840
2019-03-31T12:24:57.136Z,880
2019-03-31T12:25:57.108Z,940
2019-03-31T12:26:57.078Z,945
2019-03-31T12:27:57.086Z,935
2019-03-31T12:28:57.344Z,950
2019-03-31T12:29:57.030Z,955
2019-03-31T12:30:56.766Z,970
2019-03-31T12:31:56.987Z,995
2019-03-31T12:32:59.685Z,970
2019-03-31T12:33:56.960Z,955
2019-03-31T12:34:56.957Z,990
2019-03-31T12:35:57.648Z,995
2019-03-31T12:36:56.914Z,980
2019-03-31T12:37:56.895Z,945
2019-03-31T12:38:58.709Z,885
2019-03-31T12:39:56.849Z,865
2019-03-31T12:40:56.822Z,855
2019-03-31T12:41:56.812Z,830
2019-03-31T12:42:56.787Z,805
2019-03-31T12:43:56.807Z,815
2019-03-31T12:44:59.725Z,835
2019-03-31T12:45:56.745Z,840
2019-03-31T12:46:58.687Z,830
2019-03-31T12:47:56.699Z,830
2019-03-31T12:48:56.685Z,840
2019-03-31T12:49:56.938Z,830
2019-03-31T12:50:56.737Z,800
2019-03-31T12:51:59.877Z,755
2019-03-31T12:53:00.383Z,725
2019-03-31T12:54:00.308Z,725
2019-03-31T12:54:57.017Z,735
2019-03-31T12:56:09.421Z,790
2019-03-31T12:56:56.527Z,815
2019-03-31T12:57:58.987Z,830
2019-03-31T12:58:56.496Z,825
2019-03-31T12:59:56.482Z,830
2019-03-31T13:00:56.458Z,845
2019-03-31T13:01:56.507Z,875
2019-03-31T13:02:58.772Z,935
2019-03-31T13:03:59.131Z,930
2019-03-31T13:04:56.377Z,940
2019-03-31T13:05:56.358Z,955
2019-03-31T13:06:56.344Z,1000
2019-03-31T13:08:05.959Z,1015
2019-03-31T13:08:56.311Z,985
2019-03-31T13:09:56.297Z,910
2019-03-31T13:10:56.274Z,875
2019-03-31T13:11:59.737Z,825
2019-03-31T13:12:56.232Z,780
2019-03-31T13:13:56.220Z,740
2019-03-31T13:14:56.196Z,720
2019-03-31T13:15:56.208Z,720
2019-03-31T13:16:56.150Z,725
2019-03-31T13:17:56.202Z,745
2019-03-31T13:18:56.121Z,765
2019-03-31T13:19:56.102Z,770
2019-03-31T13:20:56.089Z,765
2019-03-31T13:21:56.065Z,755
2019-03-31T13:22:55.843Z,755
2019-03-31T13:23:56.034Z,750
2019-03-31T13:24:56.048Z,735
2019-03-31T13:25:55.990Z,765
2019-03-31T13:26:55.961Z,800
2019-03-31T13:27:55.718Z,830
2019-03-31T13:28:55.983Z,860
2019-03-31T13:29:55.914Z,805
2019-03-31T13:30:57.174Z,750
2019-03-31T13:31:55.896Z,745
2019-03-31T13:32:55.873Z,745
2019-03-31T13:33:55.848Z,710
2019-03-31T13:34:55.826Z,705
2019-03-31T13:35:57.988Z,755
2019-03-31T13:36:55.815Z,775
2019-03-31T13:38:09.920Z,755
2019-03-31T13:38:56.432Z,745
2019-03-31T13:39:55.723Z,790
2019-03-31T13:40:57.637Z,870
2019-03-31T13:41:56.624Z,895
2019-03-31T13:42:55.674Z,840
2019-03-31T13:43:55.664Z,760
2019-03-31T13:44:55.624Z,710
2019-03-31T13:45:55.698Z,700
2019-03-31T13:46:55.623Z,710
2019-03-31T13:47:58.470Z,705
2019-03-31T13:48:55.550Z,690
2019-03-31T13:49:55.527Z,690
2019-03-31T13:50:55.503Z,675
2019-03-31T13:51:55.488Z,690
2019-03-31T13:52:55.516Z,745
2019-03-31T13:53:55.452Z,800
2019-03-31T13:54:55.435Z,820
2019-03-31T13:55:55.506Z,805
2019-03-31T13:57:00.760Z,760
2019-03-31T13:58:08.078Z,715
2019-03-31T13:59:02.023Z,675
2019-03-31T13:59:55.431Z,655
2019-03-31T14:00:57.044Z,610
2019-03-31T14:01:55.297Z,580
2019-03-31T14:02:55.274Z,555
2019-03-31T14:03:55.261Z,550
2019-03-31T14:05:01.334Z,560
2019-03-31T14:05:55.211Z,570
2019-03-31T14:06:55.196Z,580
2019-03-31T14:07:55.172Z,605